createdAt,value
2023-01-19T00:01:01.530Z,5.05
2023-01-19T00:03:29.197Z,5.63
2023-01-19T00:05:56.284Z,5.38
2023-01-19T00:08:23.929Z,5.15
2023-01-19T00:10:53.799Z,4.95
2023-01-19T00:13:21.619Z,5.32
2023-01-19T00:15:48.714Z,5.57
2023-01-19T00:18:18.804Z,5.68
2023-01-19T00:20:46.993Z,5.28
2023-01-19T00:23:15.460Z,5.28
2023-01-19T00:25:44.118Z,5.25
2023-01-19T00:28:14.171Z,5.38
2023-01-19T00:30:42.495Z,5.55
2023-01-19T00:33:11.253Z,5.80
2023-01-19T00:35:38.549Z,5.18
2023-01-19T00:38:05.917Z,5.22
2023-01-19T00:40:33.151Z,5.03
2023-01-19T00:43:01.031Z,5.20
2023-01-19T00:45:28.340Z,4.93
2023-01-19T00:47:58.374Z,4.85
2023-01-19T00:50:29.133Z,5.22
2023-01-19T00:52:57.681Z,5.38
2023-01-19T00:55:31.199Z,5.40
2023-01-19T00:57:59.073Z,5.22
2023-01-19T01:00:26.645Z,5.90
2023-01-19T01:02:54.453Z,5.13
2023-01-19T01:05:22.439Z,5.43
2023-01-19T01:07:50.739Z,5.63
2023-01-19T01:10:22.948Z,4.90
2023-01-19T01:12:54.905Z,5.55
2023-01-19T01:15:26.559Z,5.03
2023-01-19T01:17:54.247Z,5.18
2023-01-19T01:20:24.578Z,5.45
2023-01-19T01:22:53.695Z,5.22
2023-01-19T01:25:23.094Z,5.35
2023-01-19T01:27:51.049Z,5.35
2023-01-19T01:30:18.958Z,5.68
2023-01-19T01:32:46.581Z,5.47
2023-01-19T01:35:14.455Z,5.80
2023-01-19T01:37:47.746Z,5.50
2023-01-19T01:40:17.399Z,5.47
2023-01-19T01:42:51.675Z,5.45
2023-01-19T01:45:35.983Z,5.38
2023-01-19T01:48:12.631Z,5.57
2023-01-19T01:51:06.971Z,5.22
2023-01-19T01:53:36.829Z,5.30
2023-01-19T01:56:09.883Z,5.53
2023-01-19T01:58:38.978Z,5.80
2023-01-19T02:01:26.309Z,5.70
2023-01-19T02:03:58.311Z,6.45
2023-01-19T02:06:26.643Z,5.93
2023-01-19T02:09:14.636Z,6.07
2023-01-19T02:12:00.765Z,6.05
2023-01-19T02:14:28.226Z,6.18
2023-01-19T02:16:55.320Z,6.22
2023-01-19T02:19:34.549Z,5.90
2023-01-19T02:22:13.665Z,5.82
2023-01-19T02:24:41.206Z,6.13
2023-01-19T02:27:10.001Z,5.82
2023-01-19T02:29:40.127Z,6.07
2023-01-19T02:32:08.859Z,5.82
2023-01-19T02:34:36.390Z,6.55
2023-01-19T02:37:12.235Z,6.60
2023-01-19T02:39:50.867Z,6.53
2023-01-19T02:42:36.063Z,5.78
2023-01-19T02:45:07.014Z,6.30
2023-01-19T02:47:48.069Z,5.60
2023-01-19T02:50:50.698Z,6.40
2023-01-19T02:53:36.831Z,6.60
2023-01-19T02:56:24.864Z,6.35
2023-01-19T02:59:06.437Z,5.75
2023-01-19T03:02:11.239Z,6.50
2023-01-19T03:05:20.160Z,6.20
2023-01-19T03:07:58.765Z,6.55
2023-01-19T03:10:47.624Z,6.10
2023-01-19T03:13:51.835Z,6.63
2023-01-19T03:16:40.928Z,6.20
2023-01-19T03:19:20.297Z,6.53
2023-01-19T03:21:59.117Z,6.38
2023-01-19T03:24:30.929Z,6.60
2023-01-19T03:27:04.252Z,6.03
2023-01-19T03:29:35.312Z,6.25
2023-01-19T03:32:07.075Z,6.15
2023-01-19T03:34:36.072Z,6.45
2023-01-19T03:37:08.274Z,5.80
2023-01-19T03:39:36.249Z,6.05
2023-01-19T03:42:09.111Z,6.82
2023-01-19T03:44:44.142Z,6.10
2023-01-19T03:47:13.951Z,6.30
2023-01-19T03:49:45.312Z,6.32
2023-01-19T03:52:13.004Z,6.57
2023-01-19T03:54:41.142Z,6.30
2023-01-19T03:57:08.446Z,6.47
2023-01-19T03:59:36.295Z,5.97
2023-01-19T04:02:03.456Z,6.03
2023-01-19T04:04:30.805Z,6.38
2023-01-19T04:06:57.880Z,6.15
2023-01-19T04:09:25.862Z,6.50
2023-01-19T04:11:53.435Z,6.45
2023-01-19T04:14:20.794Z,6.68
2023-01-19T04:16:50.375Z,6.45
2023-01-19T04:19:17.833Z,6.20
2023-01-19T04:21:44.885Z,7.15
2023-01-19T04:24:14.594Z,6.47
2023-01-19T04:26:41.578Z,6.50
2023-01-19T04:29:11.673Z,6.38
2023-01-19T04:31:38.696Z,7.38
2023-01-19T04:34:06.184Z,6.80
2023-01-19T04:36:33.348Z,6.57
2023-01-19T04:39:00.844Z,6.35
2023-01-19T04:41:28.743Z,6.70
2023-01-19T04:43:57.574Z,6.43
2023-01-19T04:46:26.823Z,6.78
2023-01-19T04:48:54.167Z,6.65
2023-01-19T04:51:21.207Z,6.68
2023-01-19T04:53:48.556Z,5.85
2023-01-19T04:56:15.607Z,6.35
2023-01-19T04:58:43.221Z,6.32
2023-01-19T05:01:10.314Z,6.30
2023-01-19T05:03:37.737Z,6.15
2023-01-19T05:06:04.936Z,6.88
2023-01-19T05:08:32.323Z,6.75
2023-01-19T05:11:02.021Z,6.38
2023-01-19T05:13:29.392Z,6.40
2023-01-19T05:15:56.462Z,6.40
2023-01-19T05:18:23.832Z,6.68
2023-01-19T05:20:53.100Z,6.65
2023-01-19T05:23:20.802Z,6.25
2023-01-19T05:25:47.854Z,6.05
2023-01-19T05:28:15.416Z,6.18
2023-01-19T05:30:42.797Z,5.78
2023-01-19T05:33:12.609Z,6.32
2023-01-19T05:35:39.763Z,6.13
2023-01-19T05:38:07.386Z,6.57
2023-01-19T05:40:34.508Z,6.78
2023-01-19T05:43:05.180Z,5.95
2023-01-19T05:45:32.795Z,6.20
2023-01-19T05:48:00.405Z,6.15
2023-01-19T05:50:29.958Z,6.63
2023-01-19T05:52:58.808Z,6.43
2023-01-19T05:55:28.585Z,6.20
2023-01-19T05:57:55.925Z,5.70
2023-01-19T06:00:23.472Z,6.57
2023-01-19T06:02:51.049Z,6.47
2023-01-19T06:05:18.172Z,6.70
2023-01-19T06:07:46.151Z,6.22
2023-01-19T06:10:13.320Z,6.40
2023-01-19T06:12:44.161Z,6.50
2023-01-19T06:15:11.822Z,7.00
2023-01-19T06:17:39.320Z,6.32
2023-01-19T06:20:07.158Z,5.95
2023-01-19T06:22:34.646Z,6.28
2023-01-19T06:25:01.702Z,6.47
2023-01-19T06:27:29.331Z,7.03
2023-01-19T06:29:56.394Z,7.45
2023-01-19T06:32:26.049Z,6.22
2023-01-19T06:34:54.073Z,6.40
2023-01-19T06:37:21.586Z,6.72
2023-01-19T06:39:50.984Z,6.97
2023-01-19T06:42:18.301Z,7.00
2023-01-19T06:44:47.619Z,6.90
2023-01-19T06:47:20.419Z,7.40
2023-01-19T06:49:48.262Z,7.18
2023-01-19T06:52:20.033Z,6.95
2023-01-19T06:54:47.454Z,6.40
2023-01-19T06:57:17.359Z,8.20
2023-01-19T06:59:44.672Z,7.03
2023-01-19T07:02:26.270Z,7.90
2023-01-19T07:04:54.282Z,7.10
2023-01-19T07:07:21.714Z,6.95
2023-01-19T07:09:51.515Z,7.47
2023-01-19T07:12:22.655Z,7.15
2023-01-19T07:14:49.915Z,7.55
2023-01-19T07:17:17.627Z,7.63
2023-01-19T07:19:45.450Z,7.65
2023-01-19T07:22:12.957Z,8.40
2023-01-19T07:24:40.212Z,7.15
2023-01-19T07:27:07.631Z,7.32
2023-01-19T07:29:34.699Z,7.53
2023-01-19T07:32:02.054Z,6.82
2023-01-19T07:34:29.566Z,7.35
2023-01-19T07:36:57.102Z,7.32
2023-01-19T07:39:26.487Z,7.90
2023-01-19T07:41:54.056Z,7.65
2023-01-19T07:44:23.363Z,8.00
2023-01-19T07:46:51.283Z,7.07
2023-01-19T07:49:18.632Z,6.78
2023-01-19T07:51:46.929Z,6.57
2023-01-19T07:54:14.129Z,7.30
2023-01-19T07:56:41.537Z,7.68
2023-01-19T07:59:11.229Z,6.82
2023-01-19T08:01:39.027Z,6.90
2023-01-19T08:04:08.562Z,7.57
2023-01-19T08:06:38.500Z,7.47
2023-01-19T08:09:08.571Z,7.03
2023-01-19T08:11:37.004Z,7.65
2023-01-19T08:14:06.291Z,8.10
2023-01-19T08:16:36.265Z,7.50
2023-01-19T08:19:04.018Z,7.50
2023-01-19T08:21:33.422Z,7.65
2023-01-19T08:24:00.598Z,7.57
2023-01-19T08:26:30.087Z,7.65
2023-01-19T08:29:00.242Z,7.75
2023-01-19T08:31:28.075Z,7.93
2023-01-19T08:33:55.573Z,7.85
2023-01-19T08:36:25.060Z,7.00
2023-01-19T08:38:54.509Z,7.00
2023-01-19T08:41:22.458Z,7.55
2023-01-19T08:43:50.028Z,6.85
2023-01-19T08:46:20.809Z,7.40
2023-01-19T08:48:50.871Z,7.30
2023-01-19T08:51:19.037Z,7.35
2023-01-19T08:53:46.199Z,6.22
2023-01-19T08:56:14.550Z,7.15
2023-01-19T08:58:43.268Z,7.05
2023-01-19T09:01:14.964Z,7.00
2023-01-19T09:03:42.554Z,7.20
2023-01-19T09:06:11.891Z,7.07
2023-01-19T09:08:39.381Z,6.70
2023-01-19T09:11:11.557Z,6.55
2023-01-19T09:13:39.614Z,6.80
2023-01-19T09:16:08.872Z,6.07
2023-01-19T09:18:38.940Z,6.90
2023-01-19T09:21:09.879Z,6.00
2023-01-19T09:23:37.466Z,6.25
2023-01-19T09:26:07.700Z,5.68
2023-01-19T09:28:35.130Z,5.15
2023-01-19T09:31:07.922Z,5.38
2023-01-19T09:33:35.815Z,4.63
2023-01-19T09:36:03.485Z,4.95
2023-01-19T09:38:33.068Z,4.18
2023-01-19T09:41:01.551Z,4.75
2023-01-19T09:43:41.505Z,5.13
2023-01-19T09:46:16.962Z,4.82
2023-01-19T09:48:54.031Z,4.57
2023-01-19T09:51:26.403Z,4.43
2023-01-19T09:54:15.930Z,4.85
2023-01-19T09:56:46.206Z,5.20
2023-01-19T09:59:13.396Z,4.85
2023-01-19T10:02:01.132Z,4.90
2023-01-19T10:04:28.077Z,4.80
2023-01-19T10:07:11.282Z,4.63
2023-01-19T10:09:41.271Z,4.75
2023-01-19T10:12:33.603Z,4.30
2023-01-19T10:15:25.489Z,4.85
2023-01-19T10:18:13.414Z,4.70
2023-01-19T10:20:51.194Z,3.80
2023-01-19T10:23:41.242Z,3.63
2023-01-19T10:26:37.649Z,3.58
2023-01-19T10:31:43.535Z,2.50
2023-01-19T10:34:23.008Z,3.15
2023-01-19T10:36:58.033Z,2.92
2023-01-19T10:39:25.493Z,3.00
2023-01-19T10:41:53.862Z,3.38
2023-01-19T10:44:34.669Z,4.45
2023-01-19T10:47:02.311Z,5.30
2023-01-19T10:49:36.971Z,6.07
2023-01-19T10:52:07.031Z,5.28
2023-01-19T10:54:37.397Z,5.00
2023-01-19T10:57:09.725Z,5.47
2023-01-19T10:59:55.304Z,5.38
2023-01-19T11:02:31.583Z,4.20
2023-01-19T11:05:01.885Z,5.80
2023-01-19T11:07:35.756Z,6.15
2023-01-19T11:10:15.394Z,5.40
2023-01-19T11:12:58.493Z,5.70
2023-01-19T11:15:32.935Z,6.38
2023-01-19T11:18:01.393Z,5.70
2023-01-19T11:20:37.533Z,5.53
2023-01-19T11:23:06.292Z,4.93
2023-01-19T11:25:36.279Z,4.95
2023-01-19T11:28:03.943Z,5.30
2023-01-19T11:30:32.174Z,5.25
2023-01-19T11:32:59.729Z,5.28
2023-01-19T11:35:36.142Z,4.75
2023-01-19T11:40:36.046Z,3.90
2023-01-19T11:43:03.580Z,4.35
2023-01-19T11:45:37.121Z,4.47
2023-01-19T11:48:07.072Z,3.67
2023-01-19T11:50:37.588Z,3.42
2023-01-19T11:53:23.571Z,3.20
2023-01-19T11:55:59.787Z,3.10
2023-01-19T11:58:27.502Z,3.38
2023-01-19T12:01:00.857Z,3.45
2023-01-19T12:03:32.187Z,3.17
2023-01-19T12:06:05.556Z,3.70
2023-01-19T12:08:44.347Z,3.58
2023-01-19T12:11:18.874Z,3.50
2023-01-19T12:13:47.179Z,3.53
2023-01-19T12:16:21.222Z,3.20
2023-01-19T12:18:53.517Z,2.50
2023-01-19T12:21:23.378Z,2.20
2023-01-19T12:24:13.698Z,2.70
2023-01-19T12:26:46.015Z,1.88
2023-01-19T12:29:18.580Z,1.83
2023-01-19T12:31:46.202Z,1.75
2023-01-19T12:34:41.131Z,1.95
2023-01-19T12:37:32.187Z,1.95
2023-01-19T12:40:03.145Z,1.92
2023-01-19T12:42:30.738Z,1.90
2023-01-19T12:45:12.534Z,1.60
2023-01-19T12:47:40.206Z,2.15
2023-01-19T12:50:17.414Z,2.50
2023-01-19T12:52:57.518Z,2.40
2023-01-19T12:55:31.284Z,2.05
2023-01-19T12:58:17.864Z,2.30
2023-01-19T13:00:47.391Z,2.33
2023-01-19T13:03:35.232Z,2.22
2023-01-19T13:06:02.355Z,2.58
2023-01-19T13:08:56.660Z,2.83
2023-01-19T13:11:29.387Z,2.72
2023-01-19T13:13:58.954Z,2.95
2023-01-19T13:16:27.811Z,2.50
2023-01-19T13:19:07.907Z,3.13
2023-01-19T13:21:44.817Z,2.75
2023-01-19T13:24:22.562Z,2.85
2023-01-19T13:26:49.730Z,4.10
2023-01-19T13:29:30.341Z,3.15
2023-01-19T13:32:03.004Z,2.60
2023-01-19T13:34:39.898Z,3.28
2023-01-19T13:37:16.496Z,2.60
2023-01-19T13:39:46.249Z,3.08
2023-01-19T13:42:38.084Z,2.67
2023-01-19T13:45:25.985Z,2.80
2023-01-19T13:47:54.568Z,2.97
2023-01-19T13:50:30.225Z,2.38
2023-01-19T13:52:59.355Z,2.88
2023-01-19T13:55:29.046Z,2.70
2023-01-19T13:57:56.886Z,2.70
2023-01-19T14:00:24.404Z,2.90
2023-01-19T14:03:00.549Z,2.25
2023-01-19T14:05:36.350Z,3.15
2023-01-19T14:08:12.875Z,2.90
2023-01-19T14:10:47.348Z,3.40
2023-01-19T14:13:21.899Z,2.67
2023-01-19T14:15:54.133Z,2.95
2023-01-19T14:18:24.838Z,2.80
2023-01-19T14:21:01.942Z,2.58
2023-01-19T14:24:06.008Z,2.80
2023-01-19T14:26:43.777Z,2.50
2023-01-19T14:29:24.172Z,2.72
2023-01-19T14:32:06.843Z,2.90
2023-01-19T14:34:46.098Z,2.83
2023-01-19T14:37:20.023Z,3.10
2023-01-19T14:40:08.050Z,3.42
2023-01-19T14:42:39.499Z,3.17
2023-01-19T14:45:16.138Z,3.22
2023-01-19T14:47:46.174Z,3.03
2023-01-19T14:50:19.875Z,3.60
2023-01-19T14:52:58.295Z,3.03
2023-01-19T14:55:35.728Z,2.90
2023-01-19T14:58:10.455Z,4.65
2023-01-19T15:00:37.679Z,7.28
2023-01-19T15:03:06.267Z,7.53
2023-01-19T15:05:33.806Z,7.72
2023-01-19T15:08:05.732Z,9.02
2023-01-19T15:10:34.909Z,8.80
2023-01-19T15:13:05.017Z,9.32
2023-01-19T15:15:35.756Z,9.10
2023-01-19T15:18:04.953Z,9.27
2023-01-19T15:20:32.089Z,9.80
2023-01-19T15:23:04.710Z,10.02
2023-01-19T15:25:34.229Z,11.05
2023-01-19T15:28:05.201Z,11.45
2023-01-19T15:30:34.520Z,11.15
2023-01-19T15:33:02.548Z,11.57
2023-01-19T15:35:31.778Z,11.80
2023-01-19T15:38:01.686Z,12.20
2023-01-19T15:40:28.818Z,12.65
2023-01-19T15:42:56.239Z,12.23
2023-01-19T15:45:34.390Z,12.57
2023-01-19T15:48:04.491Z,13.07
2023-01-19T15:50:32.409Z,12.90
2023-01-19T15:52:59.938Z,12.57
2023-01-19T15:55:27.093Z,12.30
2023-01-19T15:57:58.745Z,12.80
2023-01-19T16:00:26.455Z,11.65
2023-01-19T16:02:54.145Z,13.05
2023-01-19T16:05:33.996Z,12.05
2023-01-19T16:08:11.436Z,11.95
2023-01-19T16:10:39.105Z,12.63
2023-01-19T16:13:06.770Z,11.88
2023-01-19T16:15:38.737Z,12.85
2023-01-19T16:18:06.428Z,12.98
2023-01-19T16:20:41.110Z,12.13
2023-01-19T16:23:15.373Z,12.38
2023-01-19T16:25:43.314Z,12.02
2023-01-19T16:28:10.907Z,12.35
2023-01-19T16:30:40.457Z,11.70
2023-01-19T16:33:09.602Z,12.52
2023-01-19T16:35:36.923Z,12.45
2023-01-19T16:38:04.947Z,12.27
2023-01-19T16:40:34.533Z,12.55
2023-01-19T16:43:04.782Z,12.85
2023-01-19T16:45:32.382Z,12.95
2023-01-19T16:47:59.931Z,12.73
2023-01-19T16:50:27.149Z,12.13
2023-01-19T16:53:00.350Z,11.52
2023-01-19T16:55:42.650Z,11.52
2023-01-19T16:58:11.140Z,12.20
2023-01-19T17:00:38.480Z,11.43
2023-01-19T17:03:09.329Z,12.25
2023-01-19T17:05:37.000Z,11.45
2023-01-19T17:08:04.948Z,12.00
2023-01-19T17:10:35.580Z,12.23
2023-01-19T17:13:04.981Z,11.65
2023-01-19T17:15:32.865Z,11.40
2023-01-19T17:18:01.099Z,12.50
2023-01-19T17:20:30.386Z,11.68
2023-01-19T17:22:59.104Z,11.02
2023-01-19T17:25:27.134Z,12.27
2023-01-19T17:27:59.212Z,11.00
2023-01-19T17:30:26.815Z,10.77
2023-01-19T17:32:54.881Z,11.27
2023-01-19T17:35:25.276Z,12.02
2023-01-19T17:37:55.294Z,11.20
2023-01-19T17:40:26.423Z,11.75
2023-01-19T17:42:58.603Z,11.90
2023-01-19T17:45:26.469Z,11.23
2023-01-19T17:47:55.011Z,12.55
2023-01-19T17:50:22.877Z,11.55
2023-01-19T17:52:51.541Z,11.93
2023-01-19T17:55:20.821Z,13.32
2023-01-19T17:57:49.319Z,11.88
2023-01-19T18:00:17.868Z,12.45
2023-01-19T18:02:51.297Z,11.48
2023-01-19T18:05:21.227Z,11.43
2023-01-19T18:07:49.702Z,11.88
2023-01-19T18:10:19.918Z,11.02
2023-01-19T18:12:47.957Z,12.05
2023-01-19T18:15:17.003Z,11.80
2023-01-19T18:17:45.599Z,12.82
2023-01-19T18:20:20.049Z,13.23
2023-01-19T18:22:50.068Z,12.60
2023-01-19T18:25:18.182Z,11.30
2023-01-19T18:27:46.255Z,11.65
2023-01-19T18:30:15.118Z,12.65
2023-01-19T18:32:44.204Z,11.85
2023-01-19T18:35:13.497Z,12.68
2023-01-19T18:37:46.703Z,13.23
2023-01-19T18:40:15.818Z,12.68
2023-01-19T18:42:47.258Z,13.02
2023-01-19T18:45:16.968Z,12.48
2023-01-19T18:47:51.803Z,12.20
2023-01-19T18:50:20.293Z,12.88
2023-01-19T18:52:52.234Z,12.85
2023-01-19T18:55:24.967Z,13.98
2023-01-19T18:57:56.518Z,13.27
2023-01-19T19:00:29.801Z,12.98
2023-01-19T19:03:03.130Z,12.95
2023-01-19T19:05:31.498Z,13.40
2023-01-19T19:08:00.352Z,12.50
2023-01-19T19:10:28.563Z,12.85
2023-01-19T19:12:56.597Z,13.93
2023-01-19T19:15:28.344Z,12.55
2023-01-19T19:18:00.322Z,12.38
2023-01-19T19:20:33.000Z,13.85
2023-01-19T19:23:02.817Z,12.98
2023-01-19T19:25:34.993Z,13.00
2023-01-19T19:28:05.114Z,13.10
2023-01-19T19:30:34.912Z,12.52
2023-01-19T19:33:03.774Z,13.13
2023-01-19T19:35:35.025Z,13.35
2023-01-19T19:38:04.551Z,13.05
2023-01-19T19:40:35.288Z,13.80
2023-01-19T19:43:06.708Z,13.10
2023-01-19T19:45:35.195Z,13.48
2023-01-19T19:48:04.260Z,13.88
2023-01-19T19:50:32.786Z,14.02
2023-01-19T19:53:01.514Z,13.77
2023-01-19T19:55:34.187Z,14.45
2023-01-19T19:58:05.198Z,14.85
2023-01-19T20:00:36.847Z,13.30
2023-01-19T20:03:06.260Z,14.05
2023-01-19T20:05:37.085Z,13.77
2023-01-19T20:08:08.356Z,14.57
2023-01-19T20:10:38.131Z,14.30
2023-01-19T20:13:10.925Z,14.70
2023-01-19T20:15:40.504Z,15.60
2023-01-19T20:18:11.953Z,14.65
2023-01-19T20:20:42.249Z,14.43
2023-01-19T20:23:13.654Z,14.68
2023-01-19T20:25:41.877Z,14.63
2023-01-19T20:28:12.837Z,16.25
2023-01-19T20:30:41.365Z,14.45
2023-01-19T20:33:10.224Z,15.00
2023-01-19T20:35:38.285Z,14.48
2023-01-19T20:38:07.548Z,14.98
2023-01-19T20:40:35.888Z,14.77
2023-01-19T20:43:09.706Z,15.40
2023-01-19T20:45:45.454Z,14.35
2023-01-19T20:48:16.623Z,13.77
2023-01-19T20:50:45.813Z,13.55
2023-01-19T20:53:17.707Z,13.93
2023-01-19T20:55:46.249Z,13.40
2023-01-19T20:58:14.963Z,14.32
2023-01-19T21:00:45.291Z,14.32
2023-01-19T21:03:16.123Z,13.35
2023-01-19T21:05:49.208Z,14.05
2023-01-19T21:08:18.783Z,13.05
2023-01-19T21:10:47.933Z,13.80
2023-01-19T21:13:16.640Z,13.55
2023-01-19T21:15:44.259Z,14.00
2023-01-19T21:18:15.119Z,13.38
2023-01-19T21:20:43.164Z,12.65
2023-01-19T21:23:12.300Z,14.25
2023-01-19T21:25:48.513Z,13.57
2023-01-19T21:28:15.914Z,13.90
2023-01-19T21:30:43.116Z,13.55
2023-01-19T21:33:11.096Z,13.38
2023-01-19T21:35:39.511Z,14.13
2023-01-19T21:38:07.375Z,14.30
2023-01-19T21:40:36.951Z,14.10
2023-01-19T21:43:05.069Z,14.25
2023-01-19T21:45:32.311Z,14.82
2023-01-19T21:48:02.957Z,14.15
2023-01-19T21:50:32.693Z,14.15
2023-01-19T21:53:01.083Z,13.98
2023-01-19T21:55:28.358Z,14.25
2023-01-19T21:57:55.749Z,13.55
2023-01-19T22:00:23.405Z,14.07
2023-01-19T22:03:03.704Z,13.25
2023-01-19T22:05:36.718Z,13.32
2023-01-19T22:08:06.411Z,13.45
2023-01-19T22:10:39.729Z,13.02
2023-01-19T22:13:07.767Z,13.65
2023-01-19T22:15:35.007Z,12.82
2023-01-19T22:18:02.992Z,13.45
2023-01-19T22:20:30.269Z,13.95
2023-01-19T22:22:57.796Z,12.30
2023-01-19T22:25:27.863Z,12.43
2023-01-19T22:27:56.294Z,12.32
2023-01-19T22:30:23.371Z,13.02
2023-01-19T22:32:51.134Z,12.57
2023-01-19T22:35:18.314Z,12.63
2023-01-19T22:37:46.016Z,12.27
2023-01-19T22:40:13.324Z,12.85
2023-01-19T22:42:44.604Z,13.60
2023-01-19T22:45:11.860Z,12.77
2023-01-19T22:47:39.726Z,12.38
2023-01-19T22:50:07.937Z,11.90
2023-01-19T22:52:36.491Z,12.65
2023-01-19T22:55:04.263Z,11.57
2023-01-19T22:57:36.944Z,11.73
2023-01-19T23:00:08.884Z,11.52
2023-01-19T23:02:37.161Z,12.00
2023-01-19T23:05:04.521Z,11.63
2023-01-19T23:07:32.015Z,11.82
2023-01-19T23:09:59.184Z,11.18
2023-01-19T23:12:29.359Z,11.95
2023-01-19T23:14:56.652Z,10.63
2023-01-19T23:17:24.183Z,10.88
2023-01-19T23:19:51.372Z,10.95
2023-01-19T23:22:20.171Z,10.88
2023-01-19T23:24:48.268Z,11.20
2023-01-19T23:27:16.667Z,11.40
2023-01-19T23:29:44.672Z,10.20
2023-01-19T23:32:12.177Z,11.10
2023-01-19T23:34:39.314Z,11.32
2023-01-19T23:37:06.707Z,10.52
2023-01-19T23:39:33.809Z,11.20
2023-01-19T23:42:05.232Z,11.35
2023-01-19T23:44:32.421Z,11.63
2023-01-19T23:46:59.990Z,11.07
2023-01-19T23:49:27.195Z,12.02
2023-01-19T23:51:54.779Z,11.43
2023-01-19T23:54:21.902Z,11.65
2023-01-19T23:56:49.405Z,12.38
2023-01-19T23:59:17.042Z,11.95
